createdAt,value
2019-03-23T00:02:29.192Z,98009.54
2019-03-23T00:04:57.883Z,98006.84
2019-03-23T00:07:28.158Z,98007.79
2019-03-23T00:09:58.658Z,98013.54
2019-03-23T00:12:27.301Z,98011.68
2019-03-23T00:14:55.952Z,98009.53
2019-03-23T00:17:24.669Z,98002.69
2019-03-23T00:19:53.303Z,98013.06
2019-03-23T00:22:21.942Z,98006.83
2019-03-23T00:24:50.582Z,98007.34
2019-03-23T00:27:19.628Z,97998.97
2019-03-23T00:29:48.189Z,97991.95
2019-03-23T00:32:16.770Z,97993.11
2019-03-23T00:34:45.465Z,97987.39
2019-03-23T00:37:14.467Z,97983.39
2019-03-23T00:39:44.231Z,97983.29
2019-03-23T00:42:12.926Z,97983.39
2019-03-23T00:44:41.564Z,97982.59
2019-03-23T00:47:10.206Z,97976.25
2019-03-23T00:49:38.831Z,97971.11
2019-03-23T00:52:07.465Z,97969.06
2019-03-23T00:54:37.757Z,97978.39
2019-03-23T00:57:06.441Z,97970.53
2019-03-23T00:59:35.174Z,97972.09
2019-03-23T01:02:03.739Z,97963.31
2019-03-23T01:04:32.419Z,97968.95
2019-03-23T01:07:01.065Z,97965.69
2019-03-23T01:09:29.638Z,97970.77
2019-03-23T01:11:58.257Z,97959.21
2019-03-23T01:14:26.904Z,97958.66
2019-03-23T01:16:55.537Z,97955.69
2019-03-23T01:19:24.140Z,97960.09
2019-03-23T01:21:52.719Z,97956.66
2019-03-23T01:24:21.378Z,97957.40
2019-03-23T01:26:50.135Z,97952.47
2019-03-23T01:29:18.783Z,97954.00
2019-03-23T01:31:47.420Z,97957.06
2019-03-23T01:34:16.397Z,97958.84
2019-03-23T01:36:44.902Z,97948.84
2019-03-23T01:39:13.550Z,97945.13
2019-03-23T01:41:42.487Z,97951.30
2019-03-23T01:44:11.126Z,97947.76
2019-03-23T01:46:39.706Z,97949.97
2019-03-23T01:49:08.426Z,97954.27
2019-03-23T01:51:37.059Z,97952.53
2019-03-23T01:54:05.666Z,97948.23
2019-03-23T01:56:34.232Z,97947.47
2019-03-23T01:59:02.877Z,97946.58
2019-03-23T02:01:31.651Z,97952.27
2019-03-23T02:04:01.814Z,97960.52
2019-03-23T02:06:30.452Z,97958.76
2019-03-23T02:08:58.993Z,97958.79
2019-03-23T02:11:27.567Z,97966.03
2019-03-23T02:13:56.220Z,97967.80
2019-03-23T02:16:26.194Z,97964.81
2019-03-23T02:18:54.775Z,97965.70
2019-03-23T02:21:26.125Z,97967.82
2019-03-23T02:23:54.800Z,97963.06
2019-03-23T02:26:23.451Z,97966.47
2019-03-23T02:28:52.019Z,97962.97
2019-03-23T02:31:20.629Z,97970.36
2019-03-23T02:33:49.268Z,97970.30
2019-03-23T02:36:17.907Z,97967.33
2019-03-23T02:38:46.548Z,97982.47
2019-03-23T02:41:15.115Z,97981.16
2019-03-23T02:43:43.606Z,97969.36
2019-03-23T02:46:12.195Z,97979.45
2019-03-23T02:48:41.113Z,97972.59
2019-03-23T02:51:09.748Z,97971.75
2019-03-23T02:53:38.311Z,97978.27
2019-03-23T02:56:07.577Z,97981.28
2019-03-23T02:58:36.296Z,97982.61
2019-03-23T03:01:04.972Z,97986.88
2019-03-23T03:03:35.073Z,97989.41
2019-03-23T03:06:03.862Z,97985.19
2019-03-23T03:08:32.532Z,97983.50
2019-03-23T03:11:01.236Z,97981.69
2019-03-23T03:13:29.743Z,97982.98
2019-03-23T03:15:58.346Z,97992.45
2019-03-23T03:18:26.993Z,97994.25
2019-03-23T03:20:55.705Z,97995.95
2019-03-23T03:23:24.377Z,97994.68
2019-03-23T03:25:53.220Z,97993.80
2019-03-23T03:28:21.959Z,97992.06
2019-03-23T03:30:50.680Z,97995.51
2019-03-23T03:33:19.417Z,97996.34
2019-03-23T03:35:48.109Z,97999.35
2019-03-23T03:38:18.090Z,98005.45
2019-03-23T03:40:46.739Z,98004.56
2019-03-23T03:43:15.396Z,98006.27
2019-03-23T03:45:45.640Z,98010.05
2019-03-23T03:48:14.283Z,98013.00
2019-03-23T03:50:42.880Z,98014.22
2019-03-23T03:53:11.633Z,98019.87
2019-03-23T03:55:40.267Z,98020.91
2019-03-23T03:58:08.844Z,98022.67
2019-03-23T04:00:37.462Z,98017.59
2019-03-23T04:03:06.101Z,98027.11
2019-03-23T04:05:34.686Z,98028.44
2019-03-23T04:08:11.270Z,98035.73
2019-03-23T04:10:33.823Z,98039.63
2019-03-23T04:13:02.465Z,98031.40
2019-03-23T04:15:32.162Z,98033.10
2019-03-23T04:18:00.790Z,98037.91
2019-03-23T04:20:29.427Z,98051.31
2019-03-23T04:22:57.968Z,98042.67
2019-03-23T04:25:26.483Z,98051.30
2019-03-23T04:27:55.124Z,98052.60
2019-03-23T04:30:23.889Z,98061.19
2019-03-23T04:32:52.530Z,98056.42
2019-03-23T04:35:21.111Z,98054.31
2019-03-23T04:37:51.239Z,98053.47
2019-03-23T04:40:19.952Z,98062.47
2019-03-23T04:42:48.531Z,98060.33
2019-03-23T04:45:17.296Z,98056.91
2019-03-23T04:47:46.188Z,98060.34
2019-03-23T04:50:14.844Z,98058.19
2019-03-23T04:52:43.605Z,98065.51
2019-03-23T04:55:13.148Z,98065.52
2019-03-23T04:57:41.794Z,98070.69
2019-03-23T05:00:13.572Z,98068.09
2019-03-23T05:02:42.217Z,98062.49
2019-03-23T05:05:11.147Z,98067.67
2019-03-23T05:07:39.753Z,98073.69
2019-03-23T05:10:10.093Z,98069.80
2019-03-23T05:12:38.810Z,98070.25
2019-03-23T05:15:08.726Z,98067.22
2019-03-23T05:17:37.448Z,98069.78
2019-03-23T05:20:07.902Z,98065.05
2019-03-23T05:22:38.078Z,98059.88
2019-03-23T05:25:07.229Z,98065.39
2019-03-23T05:27:35.942Z,98067.02
2019-03-23T05:30:07.640Z,98060.77
2019-03-23T05:32:36.224Z,98067.83
2019-03-23T05:35:07.043Z,98066.13
2019-03-23T05:37:35.746Z,98062.67
2019-03-23T05:40:06.697Z,98054.27
2019-03-23T05:42:35.597Z,98051.47
2019-03-23T05:45:05.948Z,98062.10
2019-03-23T05:47:34.586Z,98058.56
2019-03-23T05:50:03.342Z,98059.08
2019-03-23T05:52:32.024Z,98061.74
2019-03-23T05:55:00.675Z,98057.20
2019-03-23T05:57:29.335Z,98059.25
2019-03-23T05:59:58.018Z,98062.92
2019-03-23T06:02:26.603Z,98059.01
2019-03-23T06:04:55.262Z,98050.44
2019-03-23T06:07:23.965Z,98048.20
2019-03-23T06:09:52.680Z,98047.88
2019-03-23T06:12:21.258Z,98048.13
2019-03-23T06:14:50.170Z,98041.30
2019-03-23T06:17:18.898Z,98041.47
2019-03-23T06:19:47.548Z,98044.00
2019-03-23T06:22:19.239Z,98045.91
2019-03-23T06:24:47.749Z,98040.08
2019-03-23T06:27:17.578Z,98045.26
2019-03-23T06:29:46.264Z,98040.47
2019-03-23T06:32:16.488Z,98037.94
2019-03-23T06:34:46.357Z,98041.94
2019-03-23T06:37:15.081Z,98038.36
2019-03-23T06:39:43.784Z,98037.23
2019-03-23T06:42:14.885Z,98036.11
2019-03-23T06:44:43.644Z,98040.38
2019-03-23T06:47:12.304Z,98040.36
2019-03-23T06:49:42.381Z,98039.21
2019-03-23T06:52:11.081Z,98036.32
2019-03-23T06:54:39.781Z,98037.55
2019-03-23T06:57:08.353Z,98029.27
2019-03-23T06:59:37.050Z,98037.50
2019-03-23T07:02:05.698Z,98034.39
2019-03-23T07:04:34.352Z,98030.02
2019-03-23T07:07:02.973Z,98033.53
2019-03-23T07:09:31.474Z,98030.48
2019-03-23T07:12:00.399Z,98027.66
2019-03-23T07:14:29.084Z,98027.88
2019-03-23T07:16:57.736Z,98025.42
2019-03-23T07:19:26.253Z,98021.03
2019-03-23T07:21:54.948Z,98019.21
2019-03-23T07:24:23.642Z,98017.12
2019-03-23T07:26:52.296Z,98020.90
2019-03-23T07:29:20.995Z,98012.86
2019-03-23T07:31:49.512Z,98003.03
2019-03-23T07:34:20.160Z,98002.08
2019-03-23T07:36:48.956Z,97997.45
2019-03-23T07:39:27.264Z,97997.34
2019-03-23T07:41:49.468Z,97986.15
2019-03-23T07:44:18.025Z,97983.75
2019-03-23T07:46:46.664Z,97977.55
2019-03-23T07:49:15.326Z,97975.13
2019-03-23T07:51:43.953Z,97962.23
2019-03-23T07:54:12.613Z,97957.57
2019-03-23T07:56:41.335Z,97959.11
2019-03-23T07:59:11.784Z,97959.28
2019-03-23T08:01:40.452Z,97963.48
2019-03-23T08:04:10.577Z,97960.19
2019-03-23T08:06:39.219Z,97955.66
2019-03-23T08:09:08.754Z,97954.04
2019-03-23T08:11:37.757Z,97948.17
2019-03-23T08:14:09.328Z,97945.55
2019-03-23T08:16:37.988Z,97934.28
2019-03-23T08:19:08.014Z,97933.38
2019-03-23T08:21:37.396Z,97932.34
2019-03-23T08:24:07.487Z,97934.41
2019-03-23T08:26:36.289Z,97933.58
2019-03-23T08:29:04.954Z,97922.06
2019-03-23T08:31:33.610Z,97926.98
2019-03-23T08:34:07.379Z,97918.38
2019-03-23T08:36:35.974Z,97915.18
2019-03-23T08:39:06.257Z,97911.21
2019-03-23T08:41:34.978Z,97903.75
2019-03-23T08:44:03.629Z,97892.27
2019-03-23T08:46:32.724Z,97881.87
2019-03-23T08:49:04.228Z,97877.81
2019-03-23T08:51:32.879Z,97874.20
2019-03-23T08:54:01.494Z,97876.08
2019-03-23T08:56:30.138Z,97868.47
2019-03-23T08:58:58.861Z,97865.36
2019-03-23T09:01:29.943Z,97863.07
2019-03-23T09:03:58.452Z,97867.01
2019-03-23T09:06:27.112Z,97856.23
2019-03-23T09:08:55.798Z,97847.95
2019-03-23T09:11:25.690Z,97853.31
2019-03-23T09:13:54.275Z,97845.83
2019-03-23T09:16:22.972Z,97840.56
2019-03-23T09:18:51.621Z,97833.27
2019-03-23T09:21:20.364Z,97816.78
2019-03-23T09:23:49.059Z,97827.99
2019-03-23T09:26:17.585Z,97827.99
2019-03-23T09:28:46.045Z,97822.70
2019-03-23T09:31:16.749Z,97826.15
2019-03-23T09:33:45.477Z,97823.00
2019-03-23T09:36:13.995Z,97818.00
2019-03-23T09:38:42.685Z,97815.22
2019-03-23T09:41:11.336Z,97812.78
2019-03-23T09:43:39.984Z,97801.02
2019-03-23T09:46:08.612Z,97779.61
2019-03-23T09:48:37.117Z,97788.53
2019-03-23T09:51:05.834Z,97787.37
2019-03-23T09:53:34.545Z,97782.67
2019-03-23T09:56:03.113Z,97774.72
2019-03-23T09:58:31.751Z,97774.72
2019-03-23T10:01:00.438Z,97772.02
2019-03-23T10:03:29.011Z,97764.41
2019-03-23T10:05:57.658Z,97764.41
2019-03-23T10:08:26.693Z,97749.67
2019-03-23T10:10:55.339Z,97752.55
2019-03-23T10:13:24.001Z,97745.51
2019-03-23T10:15:52.695Z,97748.48
2019-03-23T10:18:21.414Z,97741.50
2019-03-23T10:20:49.995Z,97743.97
2019-03-23T10:23:18.676Z,97743.77
2019-03-23T10:25:47.489Z,97737.92
2019-03-23T10:28:16.119Z,97730.75
2019-03-23T10:30:44.810Z,97723.48
2019-03-23T10:33:13.325Z,97723.75
2019-03-23T10:35:42.054Z,97715.89
2019-03-23T10:38:10.796Z,97705.67
2019-03-23T10:40:39.477Z,97709.20
2019-03-23T10:43:08.168Z,97701.81
2019-03-23T10:45:44.176Z,97697.82
2019-03-23T10:48:08.486Z,97688.00
2019-03-23T10:50:38.266Z,97675.72
2019-03-23T10:53:06.982Z,97681.80
2019-03-23T10:55:37.070Z,97685.28
2019-03-23T10:58:05.660Z,97685.17
2019-03-23T11:00:34.347Z,97667.41
2019-03-23T11:03:03.138Z,97672.33
2019-03-23T11:05:31.773Z,97667.38
2019-03-23T11:08:00.396Z,97664.73
2019-03-23T11:10:29.092Z,97652.57
2019-03-23T11:12:57.732Z,97647.11
2019-03-23T11:15:26.437Z,97653.34
2019-03-23T11:17:55.883Z,97655.30
2019-03-23T11:20:24.623Z,97638.58
2019-03-23T11:22:53.431Z,97638.00
2019-03-23T11:25:22.043Z,97630.72
2019-03-23T11:27:51.469Z,97620.25
2019-03-23T11:30:20.185Z,97621.98
2019-03-23T11:32:48.813Z,97617.17
2019-03-23T11:35:19.893Z,97592.10
2019-03-23T11:37:48.754Z,97595.91
2019-03-23T11:40:17.738Z,97590.84
2019-03-23T11:42:50.200Z,97584.36
2019-03-23T11:45:16.846Z,97577.33
2019-03-23T11:47:45.495Z,97582.76
2019-03-23T11:50:14.195Z,97574.47
2019-03-23T11:52:42.851Z,97567.31
2019-03-23T11:55:11.497Z,97563.27
2019-03-23T11:57:40.199Z,97552.92
2019-03-23T12:00:11.989Z,97537.78
2019-03-23T12:02:40.661Z,97542.97
2019-03-23T12:05:10.534Z,97539.89
2019-03-23T12:07:39.255Z,97528.98
2019-03-23T12:10:10.601Z,97527.46
2019-03-23T12:12:39.290Z,97515.73
2019-03-23T12:15:10.248Z,97514.98
2019-03-23T12:17:38.904Z,97510.05
2019-03-23T12:20:08.494Z,97496.20
2019-03-23T12:22:38.597Z,97496.95
2019-03-23T12:25:07.959Z,97491.66
2019-03-23T12:27:38.039Z,97487.70
2019-03-23T12:30:09.961Z,97480.64
2019-03-23T12:32:40.396Z,97490.08
2019-03-23T12:35:09.390Z,97476.17
2019-03-23T12:37:38.746Z,97470.44
2019-03-23T12:40:08.411Z,97471.34
2019-03-23T12:42:37.094Z,97463.39
2019-03-23T12:45:07.741Z,97467.81
2019-03-23T12:47:36.325Z,97461.08
2019-03-23T12:50:07.692Z,97455.71
2019-03-23T12:52:36.423Z,97442.64
2019-03-23T12:55:09.580Z,97442.64
2019-03-23T12:57:38.371Z,97438.30
2019-03-23T13:00:13.082Z,97437.41
2019-03-23T13:02:41.753Z,97439.14
2019-03-23T13:05:10.443Z,97428.19
2019-03-23T13:07:39.116Z,97426.66
2019-03-23T13:10:12.759Z,97427.96
2019-03-23T13:12:41.501Z,97426.78
2019-03-23T13:15:13.120Z,97419.12
2019-03-23T13:17:42.027Z,97411.91
2019-03-23T13:20:11.793Z,97410.06
2019-03-23T13:22:40.480Z,97410.75
2019-03-23T13:25:10.486Z,97397.45
2019-03-23T13:27:42.217Z,97390.15
2019-03-23T13:30:17.383Z,97395.40
2019-03-23T13:32:45.987Z,97393.77
2019-03-23T13:35:14.697Z,97390.92
2019-03-23T13:37:43.651Z,97389.98
2019-03-23T13:40:13.529Z,97388.63
2019-03-23T13:42:42.290Z,97390.88
2019-03-23T13:45:11.455Z,97386.08
2019-03-23T13:47:40.477Z,97377.33
2019-03-23T13:50:11.295Z,97381.30
2019-03-23T13:52:39.998Z,97379.39
2019-03-23T13:55:10.108Z,97377.42
2019-03-23T13:57:39.346Z,97377.01
2019-03-23T14:00:09.145Z,97379.99
2019-03-23T14:02:38.899Z,97364.42
2019-03-23T14:05:16.091Z,97369.13
2019-03-23T14:07:41.184Z,97369.97
2019-03-23T14:10:09.979Z,97365.58
2019-03-23T14:12:38.575Z,97363.58
2019-03-23T14:15:08.369Z,97360.12
2019-03-23T14:17:38.413Z,97365.91
2019-03-23T14:20:07.889Z,97359.77
2019-03-23T14:22:36.767Z,97359.92
2019-03-23T14:25:09.962Z,97355.06
2019-03-23T14:27:38.646Z,97350.33
2019-03-23T14:30:10.399Z,97346.61
2019-03-23T14:32:39.111Z,97345.48
2019-03-23T14:35:12.850Z,97348.63
2019-03-23T14:37:41.510Z,97346.05
2019-03-23T14:40:10.828Z,97346.56
2019-03-23T14:42:41.025Z,97339.59
2019-03-23T14:45:09.766Z,97334.06
2019-03-23T14:47:38.426Z,97342.66
2019-03-23T14:50:10.349Z,97338.27
2019-03-23T14:52:39.005Z,97346.96
2019-03-23T14:55:07.760Z,97338.92
2019-03-23T14:57:36.403Z,97337.45
2019-03-23T15:00:08.404Z,97332.08
2019-03-23T15:02:37.118Z,97340.17
2019-03-23T15:05:08.220Z,97338.19
2019-03-23T15:07:36.778Z,97333.94
2019-03-23T15:10:09.537Z,97339.26
2019-03-23T15:12:38.378Z,97335.19
2019-03-23T15:15:08.801Z,97331.22
2019-03-23T15:17:37.451Z,97338.16
2019-03-23T15:20:07.113Z,97333.60
2019-03-23T15:22:35.768Z,97346.05
2019-03-23T15:25:08.288Z,97348.27
2019-03-23T15:27:37.989Z,97342.34
2019-03-23T15:30:08.508Z,97350.13
2019-03-23T15:32:37.122Z,97338.28
2019-03-23T15:35:07.455Z,97347.27
2019-03-23T15:37:36.766Z,97351.24
2019-03-23T15:40:07.574Z,97339.91
2019-03-23T15:42:37.825Z,97343.46
2019-03-23T15:45:08.869Z,97343.08
2019-03-23T15:47:37.524Z,97345.77
2019-03-23T15:50:09.904Z,97347.16
2019-03-23T15:52:38.485Z,97347.91
2019-03-23T15:55:07.985Z,97346.88
2019-03-23T15:57:37.040Z,97343.74
2019-03-23T16:00:08.752Z,97350.76
2019-03-23T16:02:37.471Z,97345.80
2019-03-23T16:05:09.463Z,97349.17
2019-03-23T16:07:38.048Z,97349.53
2019-03-23T16:10:08.700Z,97362.23
2019-03-23T16:12:38.002Z,97364.66
2019-03-23T16:15:08.907Z,97359.16
2019-03-23T16:17:37.506Z,97360.44
2019-03-23T16:20:09.212Z,97362.73
2019-03-23T16:22:37.960Z,97361.72
2019-03-23T16:25:10.776Z,97362.19
2019-03-23T16:27:40.539Z,97363.25
2019-03-23T16:30:11.563Z,97360.34
2019-03-23T16:32:40.289Z,97363.44
2019-03-23T16:35:09.076Z,97362.77
2019-03-23T16:37:37.717Z,97363.37
2019-03-23T16:40:09.326Z,97366.19
2019-03-23T16:42:45.146Z,97366.48
2019-03-23T16:45:10.392Z,97364.45
2019-03-23T16:47:38.972Z,97360.77
2019-03-23T16:50:10.938Z,97367.66
2019-03-23T16:52:39.656Z,97362.73
2019-03-23T16:55:11.824Z,97363.09
2019-03-23T16:57:40.731Z,97360.02
2019-03-23T17:00:11.992Z,97363.37
2019-03-23T17:02:40.709Z,97368.36
2019-03-23T17:05:09.679Z,97374.45
2019-03-23T17:07:38.277Z,97368.25
2019-03-23T17:10:08.971Z,97372.02
2019-03-23T17:12:37.653Z,97373.38
2019-03-23T17:15:07.804Z,97376.19
2019-03-23T17:17:36.678Z,97365.56
2019-03-23T17:20:06.668Z,97369.22
2019-03-23T17:22:35.432Z,97369.22
2019-03-23T17:25:06.783Z,97357.14
2019-03-23T17:27:37.258Z,97361.21
2019-03-23T17:30:07.108Z,97361.21
2019-03-23T17:32:36.305Z,97344.99
2019-03-23T17:35:07.452Z,97344.99
2019-03-23T17:37:36.116Z,97382.80
2019-03-23T17:40:06.938Z,97389.81
2019-03-23T17:42:35.642Z,97404.95
2019-03-23T17:45:06.865Z,97405.64
2019-03-23T17:47:35.579Z,97406.01
2019-03-23T17:50:05.094Z,97413.80
2019-03-23T17:52:37.091Z,97412.23
2019-03-23T17:55:07.109Z,97418.71
2019-03-23T17:57:35.809Z,97415.40
2019-03-23T18:00:07.369Z,97417.77
2019-03-23T18:02:36.577Z,97419.76
2019-03-23T18:05:12.267Z,97428.22
2019-03-23T18:07:41.126Z,97423.53
2019-03-23T18:10:10.541Z,97421.59
2019-03-23T18:12:39.244Z,97425.86
2019-03-23T18:15:09.079Z,97420.77
2019-03-23T18:17:37.794Z,97434.88
2019-03-23T18:20:07.560Z,97432.59
2019-03-23T18:22:36.281Z,97441.56
2019-03-23T18:25:07.260Z,97451.98
2019-03-23T18:27:35.938Z,97449.36
2019-03-23T18:30:16.709Z,97456.98
2019-03-23T18:32:45.834Z,97456.45
2019-03-23T18:35:14.531Z,97452.05
2019-03-23T18:37:43.418Z,97459.09
2019-03-23T18:40:12.129Z,97467.89
2019-03-23T18:42:40.760Z,97464.49
2019-03-23T18:45:10.049Z,97470.00
2019-03-23T18:47:38.760Z,97476.88
2019-03-23T18:50:07.898Z,97476.34
2019-03-23T18:52:36.531Z,97489.55
2019-03-23T18:55:07.127Z,97499.83
2019-03-23T18:57:35.847Z,97501.84
2019-03-23T19:00:10.933Z,97507.49
2019-03-23T19:02:39.564Z,97514.53
2019-03-23T19:05:09.773Z,97503.27
2019-03-23T19:07:38.429Z,97507.09
2019-03-23T19:10:07.583Z,97508.53
2019-03-23T19:12:36.271Z,97525.93
2019-03-23T19:15:06.825Z,97524.00
2019-03-23T19:17:35.518Z,97519.78
2019-03-23T19:20:06.822Z,97524.84
2019-03-23T19:22:35.478Z,97510.01
2019-03-23T19:25:15.826Z,97509.53
2019-03-23T19:27:35.631Z,97509.61
2019-03-23T19:30:08.999Z,97512.55
2019-03-23T19:32:37.696Z,97508.71
2019-03-23T19:35:06.603Z,97517.25
2019-03-23T19:37:35.194Z,97521.09
2019-03-23T19:40:04.793Z,97513.44
2019-03-23T19:42:33.516Z,97517.16
2019-03-23T19:45:02.183Z,97522.19
2019-03-23T19:47:30.876Z,97518.75
2019-03-23T19:49:59.599Z,97510.78
2019-03-23T19:52:28.366Z,97521.97
2019-03-23T19:54:57.049Z,97523.33
2019-03-23T19:57:25.561Z,97527.73
2019-03-23T19:59:55.453Z,97536.93
2019-03-23T20:02:24.155Z,97539.31
2019-03-23T20:04:54.649Z,97534.16
2019-03-23T20:07:32.757Z,97539.13
2019-03-23T20:09:55.891Z,97539.45
2019-03-23T20:12:24.466Z,97532.63
2019-03-23T20:14:53.198Z,97537.05
2019-03-23T20:17:22.061Z,97535.84
2019-03-23T20:19:50.645Z,97537.42
2019-03-23T20:22:19.230Z,97549.38
2019-03-23T20:24:47.988Z,97540.28
2019-03-23T20:27:16.705Z,97547.25
2019-03-23T20:29:45.346Z,97542.94
2019-03-23T20:32:14.029Z,97544.31
2019-03-23T20:34:43.473Z,97549.22
2019-03-23T20:37:12.130Z,97551.72
2019-03-23T20:39:41.488Z,97546.13
2019-03-23T20:42:10.140Z,97555.38
2019-03-23T20:44:39.018Z,97551.56
2019-03-23T20:47:07.674Z,97557.28
2019-03-23T20:49:36.434Z,97547.77
2019-03-23T20:52:05.132Z,97556.70
2019-03-23T20:54:34.447Z,97554.44
2019-03-23T20:57:03.104Z,97556.05
2019-03-23T20:59:31.921Z,97556.47
2019-03-23T21:02:02.053Z,97549.53
2019-03-23T21:04:30.916Z,97543.70
2019-03-23T21:06:59.498Z,97545.70
2019-03-23T21:09:28.232Z,97556.36
2019-03-23T21:11:56.878Z,97552.28
2019-03-23T21:14:26.041Z,97554.16
2019-03-23T21:16:54.677Z,97548.17
2019-03-23T21:19:24.956Z,97554.07
2019-03-23T21:21:53.586Z,97558.74
2019-03-23T21:24:22.318Z,97556.09
2019-03-23T21:26:52.256Z,97559.37
2019-03-23T21:29:20.885Z,97556.46
2019-03-23T21:31:49.466Z,97549.02
2019-03-23T21:34:18.116Z,97553.67
2019-03-23T21:36:46.874Z,97546.63
2019-03-23T21:39:15.514Z,97549.40
2019-03-23T21:41:44.085Z,97549.22
2019-03-23T21:44:12.849Z,97548.90
2019-03-23T21:46:41.506Z,97555.49
2019-03-23T21:49:10.184Z,97557.50
2019-03-23T21:51:38.831Z,97557.06
2019-03-23T21:54:10.283Z,97550.06
2019-03-23T21:56:39.012Z,97552.91
2019-03-23T21:59:08.195Z,97563.47
2019-03-23T22:01:36.711Z,97561.13
2019-03-23T22:04:05.342Z,97560.61
2019-03-23T22:06:34.031Z,97569.67
2019-03-23T22:09:04.284Z,97569.28
2019-03-23T22:11:32.936Z,97566.95
2019-03-23T22:14:02.268Z,97562.72
2019-03-23T22:16:30.929Z,97561.69
2019-03-23T22:18:59.445Z,97565.05
2019-03-23T22:21:28.054Z,97566.34
2019-03-23T22:23:56.698Z,97570.28
2019-03-23T22:26:25.405Z,97576.74
2019-03-23T22:28:54.023Z,97579.16
2019-03-23T22:31:22.678Z,97582.41
2019-03-23T22:33:51.389Z,97578.17
2019-03-23T22:36:20.076Z,97582.51
2019-03-23T22:38:48.654Z,97575.02
2019-03-23T22:41:17.295Z,97588.02
2019-03-23T22:43:45.911Z,97585.58
2019-03-23T22:46:14.553Z,97573.95
2019-03-23T22:48:43.195Z,97575.16
2019-03-23T22:51:11.873Z,97577.42
2019-03-23T22:53:40.522Z,97579.94
2019-03-23T22:56:09.167Z,97583.83
2019-03-23T22:58:38.004Z,97585.03
2019-03-23T23:01:06.715Z,97585.97
2019-03-23T23:03:35.556Z,97584.66
2019-03-23T23:06:04.285Z,97592.82
2019-03-23T23:08:32.921Z,97595.66
2019-03-23T23:11:01.642Z,97584.81
2019-03-23T23:13:30.350Z,97590.57
2019-03-23T23:15:58.991Z,97595.75
2019-03-23T23:18:27.637Z,97594.36
2019-03-23T23:20:58.264Z,97598.99
2019-03-23T23:23:26.992Z,97604.96
2019-03-23T23:25:55.625Z,97611.98
2019-03-23T23:28:24.186Z,97604.14
2019-03-23T23:30:52.766Z,97611.26
2019-03-23T23:33:23.757Z,97611.47
2019-03-23T23:35:52.665Z,97604.75
2019-03-23T23:38:21.130Z,97609.05
2019-03-23T23:40:49.687Z,97608.05
2019-03-23T23:43:18.374Z,97609.50
2019-03-23T23:45:47.021Z,97613.95
2019-03-23T23:48:15.606Z,97604.29
2019-03-23T23:50:44.150Z,97607.47
2019-03-23T23:53:12.965Z,97609.59
2019-03-23T23:55:41.678Z,97615.91
2019-03-23T23:58:10.364Z,97614.74
